sensor_id;sensor_type;location;lat;lon;timestamp;temperature;humidity
55091;DHT22;40985;53.180;5.800;2022-07-29T00:00:00;14.50;99.90
55091;DHT22;40985;53.180;5.800;2022-07-29T00:02:26;14.50;99.90
55091;DHT22;40985;53.180;5.800;2022-07-29T00:04:52;14.50;99.90
55091;DHT22;40985;53.180;5.800;2022-07-29T00:07:18;14.60;99.90
55091;DHT22;40985;53.180;5.800;2022-07-29T00:09:44;14.60;99.90
55091;DHT22;40985;53.180;5.800;2022-07-29T00:12:09;14.50;99.90
55091;DHT22;40985;53.180;5.800;2022-07-29T00:14:35;14.50;99.90
55091;DHT22;40985;53.180;5.800;2022-07-29T00:17:01;14.50;99.90
55091;DHT22;40985;53.180;5.800;2022-07-29T00:19:26;14.50;99.90
55091;DHT22;40985;53.180;5.800;2022-07-29T00:21:52;14.50;99.90
55091;DHT22;40985;53.180;5.800;2022-07-29T00:24:18;14.60;99.90
55091;DHT22;40985;53.180;5.800;2022-07-29T00:26:43;14.60;99.90
55091;DHT22;40985;53.180;5.800;2022-07-29T00:29:09;14.50;99.90
55091;DHT22;40985;53.180;5.800;2022-07-29T00:31:35;14.50;99.90
55091;DHT22;40985;53.180;5.800;2022-07-29T00:34:00;14.50;99.90
55091;DHT22;40985;53.180;5.800;2022-07-29T00:36:26;14.50;99.90
55091;DHT22;40985;53.180;5.800;2022-07-29T00:38:52;14.60;99.90
55091;DHT22;40985;53.180;5.800;2022-07-29T00:41:18;14.50;99.90
55091;DHT22;40985;53.180;5.800;2022-07-29T00:43:44;14.50;99.90
55091;DHT22;40985;53.180;5.800;2022-07-29T00:46:10;14.50;99.90
55091;DHT22;40985;53.180;5.800;2022-07-29T00:48:36;14.50;99.90
55091;DHT22;40985;53.180;5.800;2022-07-29T00:51:04;14.50;99.90
55091;DHT22;40985;53.180;5.800;2022-07-29T00:53:31;14.50;99.90
55091;DHT22;40985;53.180;5.800;2022-07-29T00:55:57;14.50;99.90
55091;DHT22;40985;53.180;5.800;2022-07-29T00:58:24;14.60;99.90
55091;DHT22;40985;53.180;5.800;2022-07-29T01:00:52;14.50;99.90
55091;DHT22;40985;53.180;5.800;2022-07-29T01:03:18;14.50;99.90
55091;DHT22;40985;53.180;5.800;2022-07-29T01:05:44;14.50;99.90
55091;DHT22;40985;53.180;5.800;2022-07-29T01:08:12;14.50;99.90
55091;DHT22;40985;53.180;5.800;2022-07-29T01:10:40;14.50;99.90
55091;DHT22;40985;53.180;5.800;2022-07-29T01:13:07;14.50;99.90
55091;DHT22;40985;53.180;5.800;2022-07-29T01:15:36;14.60;99.90
55091;DHT22;40985;53.180;5.800;2022-07-29T01:18:14;14.50;99.90
55091;DHT22;40985;53.180;5.800;2022-07-29T01:26:48;14.50;99.90
55091;DHT22;40985;53.180;5.800;2022-07-29T01:29:27;14.60;99.90
55091;DHT22;40985;53.180;5.800;2022-07-29T01:39:43;14.60;99.90
55091;DHT22;40985;53.180;5.800;2022-07-29T01:42:20;14.50;99.90
55091;DHT22;40985;53.180;5.800;2022-07-29T01:47:25;14.60;99.90
55091;DHT22;40985;53.180;5.800;2022-07-29T01:49:54;14.60;99.90
55091;DHT22;40985;53.180;5.800;2022-07-29T01:52:36;14.50;99.90
55091;DHT22;40985;53.180;5.800;2022-07-29T01:55:09;14.60;99.90
55091;DHT22;40985;53.180;5.800;2022-07-29T01:57:39;14.60;99.90
55091;DHT22;40985;53.180;5.800;2022-07-29T02:00:06;14.60;99.90
55091;DHT22;40985;53.180;5.800;2022-07-29T02:02:33;14.60;99.90
55091;DHT22;40985;53.180;5.800;2022-07-29T02:05:02;14.60;99.90
55091;DHT22;40985;53.180;5.800;2022-07-29T02:07:29;14.60;99.90
55091;DHT22;40985;53.180;5.800;2022-07-29T02:09:57;14.60;99.90
55091;DHT22;40985;53.180;5.800;2022-07-29T02:12:24;14.60;99.90
55091;DHT22;40985;53.180;5.800;2022-07-29T02:14:52;14.70;99.90
55091;DHT22;40985;53.180;5.800;2022-07-29T02:17:32;14.70;99.90
55091;DHT22;40985;53.180;5.800;2022-07-29T02:20:02;14.70;99.90
55091;DHT22;40985;53.180;5.800;2022-07-29T02:22:31;14.70;99.90
55091;DHT22;40985;53.180;5.800;2022-07-29T02:24:58;14.70;99.90
55091;DHT22;40985;53.180;5.800;2022-07-29T02:27:25;14.70;99.90
55091;DHT22;40985;53.180;5.800;2022-07-29T02:29:53;14.80;99.90
55091;DHT22;40985;53.180;5.800;2022-07-29T02:32:21;14.70;99.90
55091;DHT22;40985;53.180;5.800;2022-07-29T02:34:49;14.80;99.90
55091;DHT22;40985;53.180;5.800;2022-07-29T02:37:16;14.80;99.90
55091;DHT22;40985;53.180;5.800;2022-07-29T02:39:43;14.70;99.90
55091;DHT22;40985;53.180;5.800;2022-07-29T02:42:12;14.70;99.90
55091;DHT22;40985;53.180;5.800;2022-07-29T02:44:39;14.70;99.90
55091;DHT22;40985;53.180;5.800;2022-07-29T02:49:42;14.70;99.90
55091;DHT22;40985;53.180;5.800;2022-07-29T02:55:25;14.60;99.90
55091;DHT22;40985;53.180;5.800;2022-07-29T02:57:59;14.60;99.90
55091;DHT22;40985;53.180;5.800;2022-07-29T03:00:28;14.60;99.90
55091;DHT22;40985;53.180;5.800;2022-07-29T03:02:57;14.60;99.90
55091;DHT22;40985;53.180;5.800;2022-07-29T03:05:24;14.60;99.90
55091;DHT22;40985;53.180;5.800;2022-07-29T03:08:06;14.60;99.90
55091;DHT22;40985;53.180;5.800;2022-07-29T03:10:32;14.60;99.90
55091;DHT22;40985;53.180;5.800;2022-07-29T03:13:00;14.60;99.90
55091;DHT22;40985;53.180;5.800;2022-07-29T03:15:26;14.60;99.90
55091;DHT22;40985;53.180;5.800;2022-07-29T03:17:53;14.60;99.90
55091;DHT22;40985;53.180;5.800;2022-07-29T03:20:19;14.50;99.90
55091;DHT22;40985;53.180;5.800;2022-07-29T03:22:45;14.50;99.90
55091;DHT22;40985;53.180;5.800;2022-07-29T03:25:17;14.50;99.90
55091;DHT22;40985;53.180;5.800;2022-07-29T03:27:44;14.50;99.90
55091;DHT22;40985;53.180;5.800;2022-07-29T03:30:11;14.50;99.90
55091;DHT22;40985;53.180;5.800;2022-07-29T03:32:37;14.50;99.90
55091;DHT22;40985;53.180;5.800;2022-07-29T03:35:04;14.50;99.90
55091;DHT22;40985;53.180;5.800;2022-07-29T03:37:31;14.50;99.90
55091;DHT22;40985;53.180;5.800;2022-07-29T03:39:57;14.50;99.90
55091;DHT22;40985;53.180;5.800;2022-07-29T03:42:27;14.50;99.90
55091;DHT22;40985;53.180;5.800;2022-07-29T03:44:54;14.50;99.90
55091;DHT22;40985;53.180;5.800;2022-07-29T03:47:24;14.50;99.90
55091;DHT22;40985;53.180;5.800;2022-07-29T03:49:53;14.50;99.90
55091;DHT22;40985;53.180;5.800;2022-07-29T03:52:20;14.50;99.90
55091;DHT22;40985;53.180;5.800;2022-07-29T03:54:47;14.50;99.90
55091;DHT22;40985;53.180;5.800;2022-07-29T03:57:15;14.50;99.90
55091;DHT22;40985;53.180;5.800;2022-07-29T03:59:41;14.50;99.90
55091;DHT22;40985;53.180;5.800;2022-07-29T04:02:10;14.50;99.90
55091;DHT22;40985;53.180;5.800;2022-07-29T04:04:36;14.50;99.90
55091;DHT22;40985;53.180;5.800;2022-07-29T04:07:03;14.50;99.90
55091;DHT22;40985;53.180;5.800;2022-07-29T04:09:29;14.50;99.90
55091;DHT22;40985;53.180;5.800;2022-07-29T04:11:54;14.50;99.90
55091;DHT22;40985;53.180;5.800;2022-07-29T04:14:20;14.50;99.90
55091;DHT22;40985;53.180;5.800;2022-07-29T04:16:46;14.50;99.90
55091;DHT22;40985;53.180;5.800;2022-07-29T04:19:12;14.50;99.90
55091;DHT22;40985;53.180;5.800;2022-07-29T04:21:39;14.50;99.90
55091;DHT22;40985;53.180;5.800;2022-07-29T04:24:05;14.50;99.90
55091;DHT22;40985;53.180;5.800;2022-07-29T04:26:32;14.50;99.90
55091;DHT22;40985;53.180;5.800;2022-07-29T04:28:58;14.50;99.90
55091;DHT22;40985;53.180;5.800;2022-07-29T04:31:24;14.50;99.90
55091;DHT22;40985;53.180;5.800;2022-07-29T04:33:49;14.50;99.90
55091;DHT22;40985;53.180;5.800;2022-07-29T04:36:15;14.60;99.90
55091;DHT22;40985;53.180;5.800;2022-07-29T04:38:41;14.60;99.90
55091;DHT22;40985;53.180;5.800;2022-07-29T04:41:06;14.60;99.90
55091;DHT22;40985;53.180;5.800;2022-07-29T04:43:36;14.60;99.90
55091;DHT22;40985;53.180;5.800;2022-07-29T04:46:03;14.60;99.90
55091;DHT22;40985;53.180;5.800;2022-07-29T04:48:29;14.60;99.90
55091;DHT22;40985;53.180;5.800;2022-07-29T04:50:56;14.60;99.90
55091;DHT22;40985;53.180;5.800;2022-07-29T04:53:21;14.60;99.90
55091;DHT22;40985;53.180;5.800;2022-07-29T04:55:47;14.60;99.90
55091;DHT22;40985;53.180;5.800;2022-07-29T04:58:13;14.60;99.90
55091;DHT22;40985;53.180;5.800;2022-07-29T05:00:39;14.60;99.90
55091;DHT22;40985;53.180;5.800;2022-07-29T05:03:05;14.60;99.90
55091;DHT22;40985;53.180;5.800;2022-07-29T05:05:31;14.60;99.90
55091;DHT22;40985;53.180;5.800;2022-07-29T05:07:56;14.60;99.90
55091;DHT22;40985;53.180;5.800;2022-07-29T05:10:22;14.70;99.90
55091;DHT22;40985;53.180;5.800;2022-07-29T05:12:48;14.70;99.90
55091;DHT22;40985;53.180;5.800;2022-07-29T05:15:14;14.70;99.90
55091;DHT22;40985;53.180;5.800;2022-07-29T05:17:40;14.70;99.90
55091;DHT22;40985;53.180;5.800;2022-07-29T05:20:06;14.70;99.90
55091;DHT22;40985;53.180;5.800;2022-07-29T05:22:32;14.80;99.90
55091;DHT22;40985;53.180;5.800;2022-07-29T05:24:58;14.70;99.90
55091;DHT22;40985;53.180;5.800;2022-07-29T05:27:24;14.80;99.90
55091;DHT22;40985;53.180;5.800;2022-07-29T05:29:50;14.80;99.90
55091;DHT22;40985;53.180;5.800;2022-07-29T05:32:16;14.80;99.90
55091;DHT22;40985;53.180;5.800;2022-07-29T05:34:42;14.80;99.90
55091;DHT22;40985;53.180;5.800;2022-07-29T05:37:07;14.80;99.90
55091;DHT22;40985;53.180;5.800;2022-07-29T05:39:33;14.80;99.90
55091;DHT22;40985;53.180;5.800;2022-07-29T05:41:59;14.90;99.90
55091;DHT22;40985;53.180;5.800;2022-07-29T05:44:24;14.90;99.90
55091;DHT22;40985;53.180;5.800;2022-07-29T05:46:50;14.90;99.90
55091;DHT22;40985;53.180;5.800;2022-07-29T05:49:16;14.90;99.90
55091;DHT22;40985;53.180;5.800;2022-07-29T05:51:41;15.00;99.90
55091;DHT22;40985;53.180;5.800;2022-07-29T05:54:07;15.00;99.90
55091;DHT22;40985;53.180;5.800;2022-07-29T05:56:33;15.00;99.90
55091;DHT22;40985;53.180;5.800;2022-07-29T05:58:59;15.10;99.90
55091;DHT22;40985;53.180;5.800;2022-07-29T06:01:24;15.10;99.90
55091;DHT22;40985;53.180;5.800;2022-07-29T06:03:50;15.10;99.90
55091;DHT22;40985;53.180;5.800;2022-07-29T06:06:15;15.20;99.90
55091;DHT22;40985;53.180;5.800;2022-07-29T06:08:41;15.30;99.90
55091;DHT22;40985;53.180;5.800;2022-07-29T06:11:07;15.40;99.90
55091;DHT22;40985;53.180;5.800;2022-07-29T06:13:34;15.60;99.90
55091;DHT22;40985;53.180;5.800;2022-07-29T06:15:59;15.70;99.90
55091;DHT22;40985;53.180;5.800;2022-07-29T06:18:25;15.80;99.90
55091;DHT22;40985;53.180;5.800;2022-07-29T06:20:51;15.80;99.90
55091;DHT22;40985;53.180;5.800;2022-07-29T06:23:17;15.90;99.90
55091;DHT22;40985;53.180;5.800;2022-07-29T06:25:43;16.00;99.90
55091;DHT22;40985;53.180;5.800;2022-07-29T06:28:09;16.10;99.90
55091;DHT22;40985;53.180;5.800;2022-07-29T06:30:35;16.00;99.90
55091;DHT22;40985;53.180;5.800;2022-07-29T06:33:00;16.20;99.90
55091;DHT22;40985;53.180;5.800;2022-07-29T06:35:27;16.20;99.90
55091;DHT22;40985;53.180;5.800;2022-07-29T06:37:53;16.20;99.90
55091;DHT22;40985;53.180;5.800;2022-07-29T06:40:19;16.20;99.90
55091;DHT22;40985;53.180;5.800;2022-07-29T06:43:04;16.30;99.90
55091;DHT22;40985;53.180;5.800;2022-07-29T06:45:29;16.40;99.90
55091;DHT22;40985;53.180;5.800;2022-07-29T06:47:55;16.40;99.90
55091;DHT22;40985;53.180;5.800;2022-07-29T06:50:21;16.50;99.90
55091;DHT22;40985;53.180;5.800;2022-07-29T06:52:47;16.60;99.90
55091;DHT22;40985;53.180;5.800;2022-07-29T06:55:13;16.60;99.90
55091;DHT22;40985;53.180;5.800;2022-07-29T06:57:39;16.70;99.90
55091;DHT22;40985;53.180;5.800;2022-07-29T07:00:06;16.80;99.90
55091;DHT22;40985;53.180;5.800;2022-07-29T07:02:32;16.80;99.90
55091;DHT22;40985;53.180;5.800;2022-07-29T07:04:57;16.90;99.90
55091;DHT22;40985;53.180;5.800;2022-07-29T07:07:24;16.90;99.90
55091;DHT22;40985;53.180;5.800;2022-07-29T07:09:50;17.00;99.90
55091;DHT22;40985;53.180;5.800;2022-07-29T07:12:15;17.10;99.90
55091;DHT22;40985;53.180;5.800;2022-07-29T07:14:41;17.20;99.90
55091;DHT22;40985;53.180;5.800;2022-07-29T07:17:07;17.30;99.90
55091;DHT22;40985;53.180;5.800;2022-07-29T07:19:33;17.30;99.90
55091;DHT22;40985;53.180;5.800;2022-07-29T07:21:58;17.40;99.90
55091;DHT22;40985;53.180;5.800;2022-07-29T07:24:24;17.40;99.90
55091;DHT22;40985;53.180;5.800;2022-07-29T07:26:50;17.40;99.90
55091;DHT22;40985;53.180;5.800;2022-07-29T07:29:16;17.40;99.90
55091;DHT22;40985;53.180;5.800;2022-07-29T07:31:42;17.40;99.90
55091;DHT22;40985;53.180;5.800;2022-07-29T07:34:08;17.50;99.90
55091;DHT22;40985;53.180;5.800;2022-07-29T07:36:33;17.50;99.90
55091;DHT22;40985;53.180;5.800;2022-07-29T07:38:59;17.50;99.90
55091;DHT22;40985;53.180;5.800;2022-07-29T07:41:25;17.50;99.90
55091;DHT22;40985;53.180;5.800;2022-07-29T07:43:50;17.50;99.90
55091;DHT22;40985;53.180;5.800;2022-07-29T07:46:16;17.50;99.90
55091;DHT22;40985;53.180;5.800;2022-07-29T07:48:42;17.50;99.90
55091;DHT22;40985;53.180;5.800;2022-07-29T07:51:08;17.40;99.90
55091;DHT22;40985;53.180;5.800;2022-07-29T07:53:34;17.40;99.90
55091;DHT22;40985;53.180;5.800;2022-07-29T07:56:00;17.40;99.90
55091;DHT22;40985;53.180;5.800;2022-07-29T07:58:26;17.40;99.90
55091;DHT22;40985;53.180;5.800;2022-07-29T08:00:51;17.40;99.90
55091;DHT22;40985;53.180;5.800;2022-07-29T08:03:17;17.30;99.90
55091;DHT22;40985;53.180;5.800;2022-07-29T08:05:43;17.40;99.90
55091;DHT22;40985;53.180;5.800;2022-07-29T08:08:09;17.40;99.90
55091;DHT22;40985;53.180;5.800;2022-07-29T08:10:34;17.40;99.90
55091;DHT22;40985;53.180;5.800;2022-07-29T08:13:20;17.50;99.90
55091;DHT22;40985;53.180;5.800;2022-07-29T08:15:46;17.50;99.90
55091;DHT22;40985;53.180;5.800;2022-07-29T08:18:13;17.60;99.90
55091;DHT22;40985;53.180;5.800;2022-07-29T08:20:39;17.70;99.90
55091;DHT22;40985;53.180;5.800;2022-07-29T08:23:07;17.80;99.90
55091;DHT22;40985;53.180;5.800;2022-07-29T08:25:36;17.90;99.90
55091;DHT22;40985;53.180;5.800;2022-07-29T08:28:03;18.10;99.90
55091;DHT22;40985;53.180;5.800;2022-07-29T08:30:29;18.10;99.90
55091;DHT22;40985;53.180;5.800;2022-07-29T08:32:54;18.20;99.90
55091;DHT22;40985;53.180;5.800;2022-07-29T08:35:21;18.50;99.90
55091;DHT22;40985;53.180;5.800;2022-07-29T08:37:47;18.50;99.90
55091;DHT22;40985;53.180;5.800;2022-07-29T08:40:13;18.60;99.90
55091;DHT22;40985;53.180;5.800;2022-07-29T08:42:39;18.70;99.90
55091;DHT22;40985;53.180;5.800;2022-07-29T08:45:05;18.70;99.90
55091;DHT22;40985;53.180;5.800;2022-07-29T08:47:32;18.70;99.90
55091;DHT22;40985;53.180;5.800;2022-07-29T08:49:58;18.60;99.90
55091;DHT22;40985;53.180;5.800;2022-07-29T08:52:26;18.60;99.90
55091;DHT22;40985;53.180;5.800;2022-07-29T08:54:53;18.60;99.90
55091;DHT22;40985;53.180;5.800;2022-07-29T08:57:19;18.60;99.90
55091;DHT22;40985;53.180;5.800;2022-07-29T08:59:47;18.60;99.90
55091;DHT22;40985;53.180;5.800;2022-07-29T09:02:22;18.60;99.90
55091;DHT22;40985;53.180;5.800;2022-07-29T09:04:48;18.50;99.90
55091;DHT22;40985;53.180;5.800;2022-07-29T09:07:18;18.50;99.90
55091;DHT22;40985;53.180;5.800;2022-07-29T09:09:44;18.50;99.90
55091;DHT22;40985;53.180;5.800;2022-07-29T09:12:12;18.50;99.90
55091;DHT22;40985;53.180;5.800;2022-07-29T09:14:38;18.50;99.90
55091;DHT22;40985;53.180;5.800;2022-07-29T09:17:04;18.40;99.90
55091;DHT22;40985;53.180;5.800;2022-07-29T09:19:32;18.50;99.90
55091;DHT22;40985;53.180;5.800;2022-07-29T09:22:01;18.50;99.90
55091;DHT22;40985;53.180;5.800;2022-07-29T09:27:24;18.50;99.90
55091;DHT22;40985;53.180;5.800;2022-07-29T09:30:13;18.50;99.90
55091;DHT22;40985;53.180;5.800;2022-07-29T09:32:59;18.60;99.90
55091;DHT22;40985;53.180;5.800;2022-07-29T09:35:28;18.60;99.90
55091;DHT22;40985;53.180;5.800;2022-07-29T09:37:54;18.50;99.90
55091;DHT22;40985;53.180;5.800;2022-07-29T09:40:23;18.50;99.90
55091;DHT22;40985;53.180;5.800;2022-07-29T09:42:49;18.60;99.90
55091;DHT22;40985;53.180;5.800;2022-07-29T09:45:35;18.70;99.90
55091;DHT22;40985;53.180;5.800;2022-07-29T09:48:16;18.70;99.90
55091;DHT22;40985;53.180;5.800;2022-07-29T09:50:44;18.80;99.90
55091;DHT22;40985;53.180;5.800;2022-07-29T09:53:10;18.80;99.90
55091;DHT22;40985;53.180;5.800;2022-07-29T09:55:49;18.80;99.90
55091;DHT22;40985;53.180;5.800;2022-07-29T09:58:17;18.90;99.90
55091;DHT22;40985;53.180;5.800;2022-07-29T10:00:43;18.90;99.90
55091;DHT22;40985;53.180;5.800;2022-07-29T10:03:10;18.80;99.90
55091;DHT22;40985;53.180;5.800;2022-07-29T10:05:35;18.80;99.90
55091;DHT22;40985;53.180;5.800;2022-07-29T10:08:01;18.90;99.90
55091;DHT22;40985;53.180;5.800;2022-07-29T10:10:29;18.80;99.90
55091;DHT22;40985;53.180;5.800;2022-07-29T10:12:56;18.70;99.90
55091;DHT22;40985;53.180;5.800;2022-07-29T10:15:24;18.60;99.90
55091;DHT22;40985;53.180;5.800;2022-07-29T10:17:52;18.50;99.90
55091;DHT22;40985;53.180;5.800;2022-07-29T10:20:19;18.40;99.90
55091;DHT22;40985;53.180;5.800;2022-07-29T10:22:46;18.30;99.90
55091;DHT22;40985;53.180;5.800;2022-07-29T10:25:12;18.20;99.90
55091;DHT22;40985;53.180;5.800;2022-07-29T10:27:39;18.10;99.90
55091;DHT22;40985;53.180;5.800;2022-07-29T10:30:05;18.10;99.90
55091;DHT22;40985;53.180;5.800;2022-07-29T10:36:15;18.20;99.90
55091;DHT22;40985;53.180;5.800;2022-07-29T10:40:57;18.30;99.90
55091;DHT22;40985;53.180;5.800;2022-07-29T10:43:46;18.40;99.90
55091;DHT22;40985;53.180;5.800;2022-07-29T10:46:13;18.50;99.90
55091;DHT22;40985;53.180;5.800;2022-07-29T10:49:08;18.70;99.90
55091;DHT22;40985;53.180;5.800;2022-07-29T10:52:05;18.80;99.90
55091;DHT22;40985;53.180;5.800;2022-07-29T11:07:36;18.90;99.90
55091;DHT22;40985;53.180;5.800;2022-07-29T11:15:28;18.80;99.90
55091;DHT22;40985;53.180;5.800;2022-07-29T11:20:48;18.80;99.90
55091;DHT22;40985;53.180;5.800;2022-07-29T11:31:45;18.80;99.90
55091;DHT22;40985;53.180;5.800;2022-07-29T11:34:26;18.80;99.90
55091;DHT22;40985;53.180;5.800;2022-07-29T11:39:43;18.80;99.90
55091;DHT22;40985;53.180;5.800;2022-07-29T11:44:57;18.80;99.90
55091;DHT22;40985;53.180;5.800;2022-07-29T11:47:24;18.80;99.90
55091;DHT22;40985;53.180;5.800;2022-07-29T11:49:51;18.80;99.90
55091;DHT22;40985;53.180;5.800;2022-07-29T11:52:18;18.80;99.90
55091;DHT22;40985;53.180;5.800;2022-07-29T11:54:44;18.80;99.90
55091;DHT22;40985;53.180;5.800;2022-07-29T11:57:10;18.90;99.90
55091;DHT22;40985;53.180;5.800;2022-07-29T11:59:41;19.00;99.90
55091;DHT22;40985;53.180;5.800;2022-07-29T12:02:08;19.10;99.90
55091;DHT22;40985;53.180;5.800;2022-07-29T12:04:36;19.20;99.90
55091;DHT22;40985;53.180;5.800;2022-07-29T12:07:13;19.20;99.90
55091;DHT22;40985;53.180;5.800;2022-07-29T12:09:38;19.30;99.90
55091;DHT22;40985;53.180;5.800;2022-07-29T12:12:04;19.40;99.90
55091;DHT22;40985;53.180;5.800;2022-07-29T12:14:32;19.50;99.90
55091;DHT22;40985;53.180;5.800;2022-07-29T12:16:59;19.60;99.90
55091;DHT22;40985;53.180;5.800;2022-07-29T12:19:28;19.70;99.90
55091;DHT22;40985;53.180;5.800;2022-07-29T12:21:55;19.70;99.90
55091;DHT22;40985;53.180;5.800;2022-07-29T12:24:23;19.80;99.90
55091;DHT22;40985;53.180;5.800;2022-07-29T12:26:51;19.90;99.90
55091;DHT22;40985;53.180;5.800;2022-07-29T12:29:17;20.00;99.90
55091;DHT22;40985;53.180;5.800;2022-07-29T12:31:44;20.10;99.90
55091;DHT22;40985;53.180;5.800;2022-07-29T12:34:11;20.10;99.90
55091;DHT22;40985;53.180;5.800;2022-07-29T12:36:37;20.10;99.90
55091;DHT22;40985;53.180;5.800;2022-07-29T12:39:04;20.20;99.90
55091;DHT22;40985;53.180;5.800;2022-07-29T12:41:30;20.20;99.90
55091;DHT22;40985;53.180;5.800;2022-07-29T12:43:56;20.30;99.90
55091;DHT22;40985;53.180;5.800;2022-07-29T12:46:22;20.40;99.90
55091;DHT22;40985;53.180;5.800;2022-07-29T12:48:51;20.30;99.90
55091;DHT22;40985;53.180;5.800;2022-07-29T12:51:31;20.40;99.90
55091;DHT22;40985;53.180;5.800;2022-07-29T12:54:12;20.60;99.90
55091;DHT22;40985;53.180;5.800;2022-07-29T12:56:42;20.60;99.90
55091;DHT22;40985;53.180;5.800;2022-07-29T12:59:13;20.70;99.90
55091;DHT22;40985;53.180;5.800;2022-07-29T13:01:39;20.90;99.90
55091;DHT22;40985;53.180;5.800;2022-07-29T13:04:05;21.10;99.90
55091;DHT22;40985;53.180;5.800;2022-07-29T13:09:10;21.20;99.90
55091;DHT22;40985;53.180;5.800;2022-07-29T13:11:39;21.20;99.90
55091;DHT22;40985;53.180;5.800;2022-07-29T13:14:06;21.30;99.90
55091;DHT22;40985;53.180;5.800;2022-07-29T13:16:32;21.30;99.90
55091;DHT22;40985;53.180;5.800;2022-07-29T13:19:14;21.30;99.90
55091;DHT22;40985;53.180;5.800;2022-07-29T13:21:39;21.30;99.90
55091;DHT22;40985;53.180;5.800;2022-07-29T13:24:06;21.30;99.90
55091;DHT22;40985;53.180;5.800;2022-07-29T13:26:32;21.30;99.90
55091;DHT22;40985;53.180;5.800;2022-07-29T13:28:58;21.40;99.90
55091;DHT22;40985;53.180;5.800;2022-07-29T13:31:24;21.40;99.90
55091;DHT22;40985;53.180;5.800;2022-07-29T13:33:50;21.40;99.90
55091;DHT22;40985;53.180;5.800;2022-07-29T13:36:17;21.50;99.90
55091;DHT22;40985;53.180;5.800;2022-07-29T13:38:43;21.60;99.90
55091;DHT22;40985;53.180;5.800;2022-07-29T13:41:09;21.70;99.90
55091;DHT22;40985;53.180;5.800;2022-07-29T13:43:35;21.80;99.90
55091;DHT22;40985;53.180;5.800;2022-07-29T13:46:01;21.80;99.90
55091;DHT22;40985;53.180;5.800;2022-07-29T13:48:26;21.90;99.90
55091;DHT22;40985;53.180;5.800;2022-07-29T13:50:52;21.80;99.90
55091;DHT22;40985;53.180;5.800;2022-07-29T13:53:18;21.80;99.90
55091;DHT22;40985;53.180;5.800;2022-07-29T13:55:44;21.90;99.90
55091;DHT22;40985;53.180;5.800;2022-07-29T13:58:10;22.10;99.90
55091;DHT22;40985;53.180;5.800;2022-07-29T14:00:36;22.40;99.90
55091;DHT22;40985;53.180;5.800;2022-07-29T14:03:01;22.70;99.90
55091;DHT22;40985;53.180;5.800;2022-07-29T14:05:27;22.70;99.90
55091;DHT22;40985;53.180;5.800;2022-07-29T14:07:53;23.00;99.90
55091;DHT22;40985;53.180;5.800;2022-07-29T14:10:18;23.20;99.90
55091;DHT22;40985;53.180;5.800;2022-07-29T14:12:44;23.30;99.90
55091;DHT22;40985;53.180;5.800;2022-07-29T14:15:09;23.30;99.90
55091;DHT22;40985;53.180;5.800;2022-07-29T14:17:35;23.40;99.90
55091;DHT22;40985;53.180;5.800;2022-07-29T14:20:01;23.50;99.90
55091;DHT22;40985;53.180;5.800;2022-07-29T14:22:26;23.30;99.90
55091;DHT22;40985;53.180;5.800;2022-07-29T14:24:52;23.30;99.90
55091;DHT22;40985;53.180;5.800;2022-07-29T14:27:18;23.20;99.90
55091;DHT22;40985;53.180;5.800;2022-07-29T14:29:43;23.10;99.90
55091;DHT22;40985;53.180;5.800;2022-07-29T14:32:09;23.20;99.90
55091;DHT22;40985;53.180;5.800;2022-07-29T14:34:36;23.30;99.90
55091;DHT22;40985;53.180;5.800;2022-07-29T14:37:03;23.10;99.90
55091;DHT22;40985;53.180;5.800;2022-07-29T14:39:30;23.10;99.90
55091;DHT22;40985;53.180;5.800;2022-07-29T14:41:56;23.00;99.90
55091;DHT22;40985;53.180;5.800;2022-07-29T14:44:22;22.90;99.90
55091;DHT22;40985;53.180;5.800;2022-07-29T14:46:48;22.70;99.90
55091;DHT22;40985;53.180;5.800;2022-07-29T14:49:14;22.70;99.90
55091;DHT22;40985;53.180;5.800;2022-07-29T14:51:40;22.80;99.90
55091;DHT22;40985;53.180;5.800;2022-07-29T14:54:06;22.90;99.90
55091;DHT22;40985;53.180;5.800;2022-07-29T14:56:31;23.00;99.90
55091;DHT22;40985;53.180;5.800;2022-07-29T14:58:57;23.00;99.90
55091;DHT22;40985;53.180;5.800;2022-07-29T15:01:23;23.00;99.90
55091;DHT22;40985;53.180;5.800;2022-07-29T15:03:50;23.10;99.90
55091;DHT22;40985;53.180;5.800;2022-07-29T15:06:16;23.30;99.90
55091;DHT22;40985;53.180;5.800;2022-07-29T15:08:41;23.20;99.90
55091;DHT22;40985;53.180;5.800;2022-07-29T15:11:07;23.10;99.90
55091;DHT22;40985;53.180;5.800;2022-07-29T15:13:34;23.20;99.90
55091;DHT22;40985;53.180;5.800;2022-07-29T15:15:59;23.10;99.90
55091;DHT22;40985;53.180;5.800;2022-07-29T15:18:25;23.10;99.90
55091;DHT22;40985;53.180;5.800;2022-07-29T15:20:51;23.00;99.90
55091;DHT22;40985;53.180;5.800;2022-07-29T15:23:17;22.80;99.90
55091;DHT22;40985;53.180;5.800;2022-07-29T15:25:42;22.80;99.90
55091;DHT22;40985;53.180;5.800;2022-07-29T15:28:08;22.60;99.90
55091;DHT22;40985;53.180;5.800;2022-07-29T15:30:35;22.50;99.90
55091;DHT22;40985;53.180;5.800;2022-07-29T15:33:07;22.30;99.90
55091;DHT22;40985;53.180;5.800;2022-07-29T15:35:33;22.40;99.90
55091;DHT22;40985;53.180;5.800;2022-07-29T15:37:59;22.30;99.90
55091;DHT22;40985;53.180;5.800;2022-07-29T15:40:25;22.20;99.90
55091;DHT22;40985;53.180;5.800;2022-07-29T15:42:50;22.20;99.90
55091;DHT22;40985;53.180;5.800;2022-07-29T15:45:16;22.20;99.90
55091;DHT22;40985;53.180;5.800;2022-07-29T15:47:42;22.30;99.90
55091;DHT22;40985;53.180;5.800;2022-07-29T15:50:08;22.40;99.90
55091;DHT22;40985;53.180;5.800;2022-07-29T15:52:40;22.40;99.90
55091;DHT22;40985;53.180;5.800;2022-07-29T15:55:06;22.50;99.90
55091;DHT22;40985;53.180;5.800;2022-07-29T15:57:32;22.60;99.90
55091;DHT22;40985;53.180;5.800;2022-07-29T15:59:58;22.80;99.90
55091;DHT22;40985;53.180;5.800;2022-07-29T16:02:24;22.80;99.90
55091;DHT22;40985;53.180;5.800;2022-07-29T16:04:50;22.80;99.90
55091;DHT22;40985;53.180;5.800;2022-07-29T16:07:16;22.90;99.90
55091;DHT22;40985;53.180;5.800;2022-07-29T16:09:42;22.90;99.90
55091;DHT22;40985;53.180;5.800;2022-07-29T16:12:08;22.90;99.90
55091;DHT22;40985;53.180;5.800;2022-07-29T16:14:34;22.90;99.90
55091;DHT22;40985;53.180;5.800;2022-07-29T16:17:00;22.90;99.90
55091;DHT22;40985;53.180;5.800;2022-07-29T16:19:28;22.80;99.90
55091;DHT22;40985;53.180;5.800;2022-07-29T16:21:54;22.80;99.90
55091;DHT22;40985;53.180;5.800;2022-07-29T16:24:20;22.80;99.90
55091;DHT22;40985;53.180;5.800;2022-07-29T16:26:46;22.80;99.90
55091;DHT22;40985;53.180;5.800;2022-07-29T16:29:11;22.80;99.90
55091;DHT22;40985;53.180;5.800;2022-07-29T16:31:37;22.80;99.90
55091;DHT22;40985;53.180;5.800;2022-07-29T16:34:03;22.80;99.90
55091;DHT22;40985;53.180;5.800;2022-07-29T16:36:29;22.80;99.90
55091;DHT22;40985;53.180;5.800;2022-07-29T16:38:54;22.80;99.90